createdAt,value
2023-04-03T00:01:39.408Z,14.00
2023-04-03T00:04:08.664Z,14.00
2023-04-03T00:06:37.524Z,14.00
2023-04-03T00:09:07.610Z,14.00
2023-04-03T00:11:37.689Z,14.00
2023-04-03T00:14:06.731Z,14.00
2023-04-03T00:16:35.679Z,14.00
2023-04-03T00:19:06.573Z,14.00
2023-04-03T00:21:35.758Z,14.00
2023-04-03T00:24:04.546Z,14.00
2023-04-03T00:26:33.539Z,14.00
2023-04-03T00:29:02.437Z,13.90
2023-04-03T00:31:31.462Z,13.90
2023-04-03T00:34:01.255Z,13.90
2023-04-03T00:36:32.017Z,13.90
2023-04-03T00:39:01.173Z,13.90
2023-04-03T00:41:30.003Z,13.80
2023-04-03T00:43:58.935Z,13.80
2023-04-03T00:46:28.245Z,13.80
2023-04-03T00:48:57.072Z,13.80
2023-04-03T00:51:28.748Z,13.80
2023-04-03T00:54:02.600Z,13.80
2023-04-03T00:56:33.302Z,13.80
2023-04-03T00:59:06.290Z,13.80
2023-04-03T01:01:35.814Z,13.80
2023-04-03T01:04:05.357Z,13.70
2023-04-03T01:06:38.874Z,13.70
2023-04-03T01:09:28.314Z,13.70
2023-04-03T01:12:13.659Z,13.70
2023-04-03T01:14:44.461Z,13.70
2023-04-03T01:17:34.840Z,13.70
2023-04-03T01:20:44.722Z,13.70
2023-04-03T01:23:35.215Z,13.70
2023-04-03T01:26:06.417Z,13.70
2023-04-03T01:28:37.640Z,13.70
2023-04-03T01:31:17.672Z,13.70
2023-04-03T01:33:50.452Z,13.70
2023-04-03T01:36:23.102Z,13.70
2023-04-03T01:38:52.475Z,13.70
2023-04-03T01:41:21.997Z,13.70
2023-04-03T01:43:52.729Z,13.70
2023-04-03T01:46:22.880Z,13.70
2023-04-03T01:49:12.099Z,13.70
2023-04-03T01:51:41.029Z,13.70
2023-04-03T01:54:10.129Z,13.70
2023-04-03T01:56:40.187Z,13.70
2023-04-03T01:59:10.381Z,13.70
2023-04-03T02:01:39.704Z,13.70
2023-04-03T02:04:08.644Z,13.70
2023-04-03T02:06:39.000Z,13.70
2023-04-03T02:09:08.279Z,13.60
2023-04-03T02:11:37.079Z,13.60
2023-04-03T02:14:06.689Z,13.60
2023-04-03T02:16:36.248Z,13.60
2023-04-03T02:19:05.312Z,13.60
2023-04-03T02:21:34.215Z,13.60
2023-04-03T02:24:04.567Z,13.60
2023-04-03T02:26:33.591Z,13.60
2023-04-03T02:29:02.362Z,13.60
2023-04-03T02:31:31.268Z,13.60
2023-04-03T02:34:01.611Z,13.60
2023-04-03T02:36:32.890Z,13.60
2023-04-03T02:39:07.361Z,13.60
2023-04-03T02:41:37.790Z,13.60
2023-04-03T02:44:13.887Z,13.60
2023-04-03T02:46:42.844Z,13.60
2023-04-03T02:49:30.013Z,13.50
2023-04-03T02:51:59.006Z,13.50
2023-04-03T02:54:31.659Z,13.50
2023-04-03T02:57:04.555Z,13.50
2023-04-03T02:59:33.610Z,13.50
2023-04-03T03:02:02.559Z,13.50
2023-04-03T03:04:31.441Z,13.50
2023-04-03T03:07:18.691Z,13.50
2023-04-03T03:09:48.990Z,13.50
2023-04-03T03:12:22.610Z,13.50
2023-04-03T03:14:52.966Z,13.50
2023-04-03T03:17:22.077Z,13.50
2023-04-03T03:19:51.068Z,13.50
2023-04-03T03:22:20.203Z,13.50
2023-04-03T03:24:50.888Z,13.50
2023-04-03T03:27:23.454Z,13.50
2023-04-03T03:29:52.461Z,13.50
2023-04-03T03:32:21.524Z,13.50
2023-04-03T03:34:50.402Z,13.50
2023-04-03T03:37:19.301Z,13.50
2023-04-03T03:39:49.795Z,13.50
2023-04-03T03:42:19.166Z,13.50
2023-04-03T03:44:48.252Z,13.60
2023-04-03T03:47:17.140Z,13.50
2023-04-03T03:49:46.142Z,13.50
2023-04-03T03:52:15.279Z,13.50
2023-04-03T03:54:44.224Z,13.50
2023-04-03T03:57:14.955Z,13.50
2023-04-03T03:59:45.156Z,13.50
2023-04-03T04:02:14.630Z,13.50
2023-04-03T04:04:44.632Z,13.50
2023-04-03T04:07:13.869Z,13.50
2023-04-03T04:09:43.256Z,13.50
2023-04-03T04:12:13.922Z,13.50
2023-04-03T04:14:43.068Z,13.50
2023-04-03T04:17:12.405Z,13.50
2023-04-03T04:19:41.284Z,13.50
2023-04-03T04:22:10.786Z,13.50
2023-04-03T04:24:39.926Z,13.50
2023-04-03T04:27:10.393Z,13.50
2023-04-03T04:29:41.278Z,13.50
2023-04-03T04:32:11.364Z,13.50
2023-04-03T04:34:40.353Z,13.50
2023-04-03T04:37:09.458Z,13.60
2023-04-03T04:39:38.968Z,13.60
2023-04-03T04:42:15.564Z,13.70
2023-04-03T04:44:49.044Z,13.70
2023-04-03T04:47:18.658Z,13.70
2023-04-03T04:49:48.686Z,13.80
2023-04-03T04:52:18.042Z,13.80
2023-04-03T04:54:47.765Z,13.90
2023-04-03T04:57:16.929Z,13.90
2023-04-03T04:59:47.948Z,13.90
2023-04-03T05:02:55.492Z,14.00
2023-04-03T05:05:38.302Z,14.00
2023-04-03T05:08:09.482Z,14.10
2023-04-03T05:10:43.905Z,14.20
2023-04-03T05:13:13.859Z,14.20
2023-04-03T05:15:45.526Z,14.30
2023-04-03T05:18:15.451Z,14.30
2023-04-03T05:20:45.385Z,14.40
2023-04-03T05:23:14.529Z,14.50
2023-04-03T05:25:45.106Z,14.60
2023-04-03T05:28:15.267Z,14.70
2023-04-03T05:30:45.785Z,14.90
2023-04-03T05:33:15.345Z,14.90
2023-04-03T05:35:52.207Z,15.10
2023-04-03T05:38:26.584Z,15.30
2023-04-03T05:40:57.158Z,15.50
2023-04-03T05:43:26.497Z,15.70
2023-04-03T05:45:57.547Z,15.90
2023-04-03T05:48:28.793Z,16.10
2023-04-03T05:50:57.842Z,16.40
2023-04-03T05:53:31.916Z,16.60
2023-04-03T05:56:04.678Z,16.70
2023-04-03T05:58:37.995Z,16.90
2023-04-03T06:01:08.948Z,17.20
2023-04-03T06:03:40.128Z,17.30
2023-04-03T06:06:14.384Z,17.60
2023-04-03T06:08:44.943Z,17.80
2023-04-03T06:11:14.522Z,18.00
2023-04-03T06:13:43.477Z,18.20
2023-04-03T06:16:16.542Z,18.30
2023-04-03T06:18:45.797Z,18.40
2023-04-03T06:21:14.836Z,18.50
2023-04-03T06:23:43.830Z,18.60
2023-04-03T06:26:13.271Z,18.60
2023-04-03T06:28:42.113Z,18.60
2023-04-03T06:31:11.194Z,18.60
2023-04-03T06:33:41.883Z,18.70
2023-04-03T06:36:14.074Z,18.70
2023-04-03T06:38:43.257Z,18.80
2023-04-03T06:41:12.298Z,18.90
2023-04-03T06:43:41.302Z,19.00
2023-04-03T06:46:18.027Z,19.00
2023-04-03T06:48:48.677Z,18.90
2023-04-03T06:51:22.007Z,19.00
2023-04-03T06:53:51.898Z,19.00
2023-04-03T06:56:21.117Z,19.00
2023-04-03T06:58:50.207Z,19.10
2023-04-03T07:01:20.511Z,19.20
2023-04-03T07:03:51.501Z,19.40
2023-04-03T07:06:21.130Z,19.50
2023-04-03T07:08:50.479Z,19.60
2023-04-03T07:11:19.413Z,19.70
2023-04-03T07:13:48.403Z,19.80
2023-04-03T07:16:36.396Z,19.80
2023-04-03T07:19:06.866Z,19.90
2023-04-03T07:21:36.436Z,20.00
2023-04-03T07:24:05.867Z,20.10
2023-04-03T07:26:38.089Z,20.30
2023-04-03T07:29:07.187Z,20.40
2023-04-03T07:31:36.321Z,20.60
2023-04-03T07:34:07.169Z,20.70
2023-04-03T07:36:37.304Z,20.60
2023-04-03T07:39:08.173Z,20.90
2023-04-03T07:41:37.251Z,21.00
2023-04-03T07:44:06.748Z,21.10
2023-04-03T07:46:36.081Z,21.20
2023-04-03T07:49:06.546Z,21.30
2023-04-03T07:51:35.985Z,21.30
2023-04-03T07:54:05.182Z,21.40
2023-04-03T07:56:34.612Z,21.50
2023-04-03T07:59:03.599Z,21.60
2023-04-03T08:01:33.772Z,21.70
2023-04-03T08:04:22.755Z,21.80
2023-04-03T08:06:52.150Z,22.00
2023-04-03T08:09:21.568Z,22.20
2023-04-03T08:11:50.909Z,22.30
2023-04-03T08:14:19.868Z,22.50
2023-04-03T08:16:50.563Z,22.50
2023-04-03T08:19:26.059Z,22.50
2023-04-03T08:21:58.270Z,22.50
2023-04-03T08:24:27.699Z,22.40
2023-04-03T08:26:56.790Z,22.30
2023-04-03T08:29:26.198Z,22.30
2023-04-03T08:31:55.242Z,22.40
2023-04-03T08:34:24.153Z,22.40
2023-04-03T08:36:53.128Z,22.30
2023-04-03T08:39:23.528Z,22.30
2023-04-03T08:41:52.843Z,22.30
2023-04-03T08:44:27.982Z,22.30
2023-04-03T08:47:13.786Z,22.40
2023-04-03T08:49:48.821Z,22.50
2023-04-03T08:52:21.066Z,22.50
2023-04-03T08:54:57.103Z,22.50
2023-04-03T08:57:31.965Z,22.50
2023-04-03T09:00:04.980Z,22.50
2023-04-03T09:02:37.551Z,22.50
2023-04-03T09:05:15.033Z,22.60
2023-04-03T09:07:50.041Z,22.60
2023-04-03T09:10:26.437Z,22.60
2023-04-03T09:13:02.039Z,22.60
2023-04-03T09:15:39.000Z,22.60
2023-04-03T09:18:15.825Z,22.60
2023-04-03T09:20:48.998Z,22.60
2023-04-03T09:23:24.037Z,22.60
2023-04-03T09:26:05.036Z,22.50
2023-04-03T09:28:43.108Z,22.50
2023-04-03T09:31:23.376Z,22.40
2023-04-03T09:33:55.494Z,22.40
2023-04-03T09:36:49.138Z,22.40
2023-04-03T09:39:20.688Z,22.40
2023-04-03T09:42:02.603Z,22.50
2023-04-03T09:44:34.329Z,22.40
2023-04-03T09:47:21.529Z,22.40
2023-04-03T09:49:50.658Z,22.30
2023-04-03T09:52:25.938Z,22.40
2023-04-03T09:54:55.262Z,22.30
2023-04-03T09:57:38.028Z,22.30
2023-04-03T10:00:23.010Z,22.30
2023-04-03T10:02:56.897Z,22.40
2023-04-03T10:05:33.768Z,22.50
2023-04-03T10:08:25.859Z,22.60
2023-04-03T10:11:19.899Z,22.70
2023-04-03T10:14:00.705Z,22.80
2023-04-03T10:16:35.636Z,23.00
2023-04-03T10:19:27.957Z,23.10
2023-04-03T10:22:01.753Z,23.20
2023-04-03T10:24:38.780Z,23.30
2023-04-03T10:27:13.079Z,23.40
2023-04-03T10:29:51.558Z,23.50
2023-04-03T10:32:41.631Z,23.60
2023-04-03T10:35:18.902Z,23.60
2023-04-03T10:38:13.889Z,23.60
2023-04-03T10:40:50.211Z,23.80
2023-04-03T10:43:26.993Z,23.90
2023-04-03T10:46:04.121Z,24.00
2023-04-03T10:48:56.201Z,24.10
2023-04-03T10:51:36.734Z,24.10
2023-04-03T10:54:13.298Z,24.10
2023-04-03T10:56:45.081Z,24.20
2023-04-03T10:59:24.019Z,24.20
2023-04-03T11:01:58.880Z,24.20
2023-04-03T11:04:33.094Z,24.20
2023-04-03T11:07:05.940Z,24.20
2023-04-03T11:09:39.035Z,24.40
2023-04-03T11:12:15.391Z,24.40
2023-04-03T11:14:45.288Z,24.60
2023-04-03T11:17:23.815Z,24.70
2023-04-03T11:20:19.766Z,24.90
2023-04-03T11:22:54.115Z,25.10
2023-04-03T11:25:26.607Z,25.30
2023-04-03T11:28:00.603Z,25.50
2023-04-03T11:30:34.891Z,25.60
2023-04-03T11:33:27.723Z,25.80
2023-04-03T11:36:05.428Z,25.90
2023-04-03T11:38:42.736Z,25.90
2023-04-03T11:41:13.019Z,25.90
2023-04-03T11:43:57.572Z,25.80
2023-04-03T11:46:55.652Z,25.70
2023-04-03T11:50:02.354Z,25.60
2023-04-03T11:53:02.235Z,25.40
2023-04-03T11:56:03.339Z,25.20
2023-04-03T11:58:34.602Z,25.00
2023-04-03T12:01:13.338Z,24.80
2023-04-03T12:04:08.335Z,24.70
2023-04-03T12:07:16.199Z,24.50
2023-04-03T12:10:31.581Z,24.40
2023-04-03T12:13:05.188Z,24.30
2023-04-03T12:15:55.934Z,24.20
2023-04-03T12:18:59.697Z,24.20
2023-04-03T12:22:08.529Z,24.20
2023-04-03T12:24:40.314Z,24.10
2023-04-03T12:27:40.162Z,24.10
2023-04-03T12:30:19.514Z,24.10
2023-04-03T12:33:22.944Z,24.10
2023-04-03T12:36:06.933Z,24.10
2023-04-03T12:39:09.260Z,24.10
2023-04-03T12:41:46.224Z,24.10
2023-04-03T12:44:38.976Z,24.10
2023-04-03T12:47:24.301Z,24.20
2023-04-03T12:49:54.608Z,24.30
2023-04-03T12:52:34.694Z,24.40
2023-04-03T12:55:12.181Z,24.50
2023-04-03T12:57:41.998Z,24.60
2023-04-03T13:00:33.958Z,24.70
2023-04-03T13:03:06.147Z,24.70
2023-04-03T13:05:37.214Z,24.70
2023-04-03T13:08:15.547Z,24.80
2023-04-03T13:10:58.795Z,24.80
2023-04-03T13:13:31.132Z,24.80
2023-04-03T13:16:14.960Z,24.80
2023-04-03T13:18:44.108Z,24.90
2023-04-03T13:21:19.174Z,24.90
2023-04-03T13:23:53.216Z,24.90
2023-04-03T13:26:29.421Z,24.90
2023-04-03T13:29:03.240Z,24.90
2023-04-03T13:31:36.251Z,24.90
2023-04-03T13:34:09.111Z,25.10
2023-04-03T13:36:41.647Z,24.90
2023-04-03T13:39:26.760Z,24.90
2023-04-03T13:42:24.145Z,24.90
2023-04-03T13:45:11.911Z,25.00
2023-04-03T13:47:44.144Z,25.00
2023-04-03T13:50:19.910Z,25.00
2023-04-03T13:52:50.441Z,25.00
2023-04-03T13:55:25.606Z,24.90
2023-04-03T13:57:59.250Z,24.90
2023-04-03T14:00:38.443Z,24.90
2023-04-03T14:03:23.846Z,24.90
2023-04-03T14:05:52.944Z,24.90
2023-04-03T14:08:29.486Z,24.90
2023-04-03T14:11:19.763Z,24.90
2023-04-03T14:13:51.494Z,24.90
2023-04-03T14:16:23.180Z,25.00
2023-04-03T14:18:54.233Z,25.00
2023-04-03T14:21:23.862Z,25.00
2023-04-03T14:23:52.852Z,25.00
2023-04-03T14:26:24.900Z,25.00
2023-04-03T14:28:55.521Z,25.00
2023-04-03T14:31:24.832Z,25.00
2023-04-03T14:33:55.342Z,25.00
2023-04-03T14:36:26.555Z,25.00
2023-04-03T14:38:56.012Z,25.00
2023-04-03T14:41:27.235Z,25.00
2023-04-03T14:43:56.437Z,24.90
2023-04-03T14:46:43.112Z,24.90
2023-04-03T14:49:29.206Z,24.90
2023-04-03T14:51:58.953Z,24.80
2023-04-03T14:54:29.282Z,24.80
2023-04-03T14:57:01.220Z,24.80
2023-04-03T14:59:31.544Z,24.70
2023-04-03T15:02:08.390Z,24.70
2023-04-03T15:04:38.972Z,24.60
2023-04-03T15:07:29.846Z,24.50
2023-04-03T15:09:58.741Z,24.40
2023-04-03T15:12:28.197Z,24.40
2023-04-03T15:15:01.733Z,24.30
2023-04-03T15:17:32.545Z,24.20
2023-04-03T15:20:03.257Z,24.20
2023-04-03T15:22:32.267Z,24.10
2023-04-03T15:25:01.161Z,24.10
2023-04-03T15:27:30.770Z,24.00
2023-04-03T15:30:01.851Z,24.00
2023-04-03T15:32:32.480Z,24.00
2023-04-03T15:35:06.489Z,23.90
2023-04-03T15:37:35.477Z,23.80
2023-04-03T15:40:04.947Z,23.80
2023-04-03T15:42:34.390Z,23.70
2023-04-03T15:45:03.406Z,23.60
2023-04-03T15:47:32.497Z,23.60
2023-04-03T15:50:02.941Z,23.50
2023-04-03T15:52:31.965Z,23.50
2023-04-03T15:55:01.415Z,23.50
2023-04-03T16:00:05.547Z,23.40
2023-04-03T16:02:36.586Z,23.30
2023-04-03T16:05:08.488Z,23.20
2023-04-03T16:07:39.291Z,23.10
2023-04-03T16:10:09.992Z,23.00
2023-04-03T16:12:39.210Z,22.90
2023-04-03T16:15:10.270Z,22.80
2023-04-03T16:17:42.273Z,22.80
2023-04-03T16:20:15.256Z,22.70
2023-04-03T16:22:44.964Z,22.60
2023-04-03T16:25:14.637Z,22.50
2023-04-03T16:27:43.638Z,22.40
2023-04-03T16:30:31.045Z,22.20
2023-04-03T16:33:00.167Z,22.10
2023-04-03T16:35:30.828Z,22.00
2023-04-03T16:37:59.739Z,21.90
2023-04-03T16:40:28.557Z,21.70
2023-04-03T16:42:57.450Z,21.70
2023-04-03T16:45:26.312Z,21.60
2023-04-03T16:47:55.170Z,21.50
2023-04-03T16:50:24.225Z,21.40
2023-04-03T16:52:54.530Z,21.30
2023-04-03T16:55:23.529Z,21.20
2023-04-03T16:57:52.509Z,21.10
2023-04-03T17:00:21.759Z,21.00
2023-04-03T17:02:50.725Z,20.90
2023-04-03T17:05:19.829Z,20.80
2023-04-03T17:07:48.662Z,20.70
2023-04-03T17:10:23.048Z,20.60
2023-04-03T17:12:55.998Z,20.40
2023-04-03T17:15:27.295Z,20.40
2023-04-03T17:17:56.909Z,20.20
2023-04-03T17:20:25.794Z,20.10
2023-04-03T17:22:58.230Z,20.00
2023-04-03T17:25:28.834Z,20.00
2023-04-03T17:27:59.074Z,20.00
2023-04-03T17:30:28.370Z,20.00
2023-04-03T17:32:57.825Z,20.00
2023-04-03T17:35:26.836Z,20.00
2023-04-03T17:37:55.889Z,19.90
2023-04-03T17:40:28.744Z,19.90
2023-04-03T17:42:59.866Z,19.80
2023-04-03T17:45:47.523Z,19.80
2023-04-03T17:48:16.577Z,19.70
2023-04-03T17:50:46.890Z,19.60
2023-04-03T17:53:16.377Z,19.50
2023-04-03T17:55:46.684Z,19.40
2023-04-03T17:58:17.235Z,19.30
2023-04-03T18:00:46.321Z,19.10
2023-04-03T18:03:15.196Z,19.00
2023-04-03T18:05:44.373Z,18.90
2023-04-03T18:08:13.778Z,18.60
2023-04-03T18:10:42.919Z,18.70
2023-04-03T18:15:46.041Z,18.50
2023-04-03T18:18:43.999Z,18.40
2023-04-03T18:21:31.625Z,18.30
2023-04-03T18:24:05.361Z,18.30
2023-04-03T18:26:35.639Z,18.20
2023-04-03T18:29:08.068Z,18.10
2023-04-03T18:31:41.654Z,18.00
2023-04-03T18:34:10.837Z,18.00
2023-04-03T18:36:39.708Z,17.90
2023-04-03T18:39:08.571Z,17.80
2023-04-03T18:41:38.813Z,17.70
2023-04-03T18:44:11.760Z,17.70
2023-04-03T18:46:42.586Z,17.60
2023-04-03T18:49:13.166Z,17.50
2023-04-03T18:51:42.688Z,17.40
2023-04-03T18:54:11.559Z,17.40
2023-04-03T18:56:40.527Z,17.30
2023-04-03T18:59:09.517Z,17.30
2023-04-03T19:01:38.427Z,17.20
2023-04-03T19:04:09.336Z,17.10
2023-04-03T19:06:39.541Z,17.10
2023-04-03T19:09:09.253Z,17.10
2023-04-03T19:11:38.935Z,17.00
2023-04-03T19:16:40.400Z,16.90
2023-04-03T19:19:10.818Z,16.90
2023-04-03T19:21:41.661Z,16.80
2023-04-03T19:24:11.380Z,16.80
2023-04-03T19:26:41.422Z,16.70
2023-04-03T19:29:10.485Z,16.70
2023-04-03T19:31:41.996Z,16.70
2023-04-03T19:34:13.267Z,16.60
2023-04-03T19:36:43.403Z,16.60
2023-04-03T19:39:14.747Z,16.50
2023-04-03T19:41:46.157Z,16.50
2023-04-03T19:44:15.557Z,16.40
2023-04-03T19:46:51.410Z,16.40
2023-04-03T19:49:22.448Z,16.50
2023-04-03T19:52:11.022Z,16.50
2023-04-03T19:54:39.961Z,16.50
2023-04-03T19:57:14.129Z,16.50
2023-04-03T19:59:45.104Z,16.50
2023-04-03T20:02:14.448Z,16.50
2023-04-03T20:04:45.289Z,16.40
2023-04-03T20:07:14.265Z,16.40
2023-04-03T20:10:04.735Z,16.40
2023-04-03T20:12:33.594Z,16.30
2023-04-03T20:15:07.621Z,16.30
2023-04-03T20:17:36.881Z,16.20
2023-04-03T20:20:08.951Z,16.20
2023-04-03T20:22:38.864Z,16.20
2023-04-03T20:25:12.252Z,16.20
2023-04-03T20:27:41.474Z,16.20
2023-04-03T20:30:14.872Z,16.10
2023-04-03T20:32:43.828Z,16.10
2023-04-03T20:35:14.291Z,16.10
2023-04-03T20:37:44.903Z,16.10
2023-04-03T20:40:15.571Z,16.20
2023-04-03T20:43:03.738Z,16.10
2023-04-03T20:45:34.594Z,16.10
2023-04-03T20:48:06.002Z,16.10
2023-04-03T20:50:36.705Z,16.10
2023-04-03T20:53:05.730Z,16.00
2023-04-03T20:55:34.632Z,16.00
2023-04-03T20:58:03.902Z,15.90
2023-04-03T21:00:39.785Z,15.90
2023-04-03T21:03:09.999Z,15.90
2023-04-03T21:05:41.962Z,15.80
2023-04-03T21:08:48.185Z,15.70
2023-04-03T21:11:54.289Z,15.70
2023-04-03T21:15:00.070Z,15.70
2023-04-03T21:17:28.492Z,15.70
2023-04-03T21:19:58.909Z,15.80
2023-04-03T21:22:28.011Z,15.70
2023-04-03T21:24:58.191Z,15.70
2023-04-03T21:27:30.103Z,15.80
2023-04-03T21:29:59.095Z,16.00
2023-04-03T21:32:27.901Z,16.10
2023-04-03T21:34:56.952Z,16.30
2023-04-03T21:37:27.582Z,16.30
2023-04-03T21:39:56.716Z,16.40
2023-04-03T21:42:25.902Z,16.40
2023-04-03T21:44:54.805Z,16.40
2023-04-03T21:47:24.106Z,16.40
2023-04-03T21:50:11.969Z,16.40
2023-04-03T21:52:42.973Z,16.40
2023-04-03T21:55:12.667Z,16.40
2023-04-03T21:57:41.759Z,16.30
2023-04-03T22:00:14.296Z,16.30
2023-04-03T22:02:43.670Z,16.30
2023-04-03T22:05:12.657Z,16.20
2023-04-03T22:07:45.972Z,16.20
2023-04-03T22:10:15.824Z,16.10
2023-04-03T22:12:44.683Z,16.10
2023-04-03T22:15:13.939Z,16.00
2023-04-03T22:17:43.156Z,16.00
2023-04-03T22:20:12.471Z,16.00
2023-04-03T22:22:42.799Z,15.90
2023-04-03T22:25:12.491Z,15.80
2023-04-03T22:27:41.984Z,15.80
2023-04-03T22:30:11.612Z,15.70
2023-04-03T22:32:41.113Z,15.70
2023-04-03T22:35:10.641Z,15.70
2023-04-03T22:37:39.531Z,15.60
2023-04-03T22:40:11.459Z,15.60
2023-04-03T22:42:40.317Z,15.60
2023-04-03T22:45:10.291Z,15.50
2023-04-03T22:47:39.311Z,15.50
2023-04-03T22:50:08.585Z,15.50
2023-04-03T22:52:37.477Z,15.50
2023-04-03T22:55:18.653Z,15.40
2023-04-03T22:57:50.148Z,15.40
2023-04-03T23:00:20.825Z,15.40
2023-04-03T23:02:49.831Z,15.30
2023-04-03T23:05:18.749Z,15.30
2023-04-03T23:07:47.802Z,15.20
2023-04-03T23:10:16.904Z,15.20
2023-04-03T23:12:45.796Z,15.10
2023-04-03T23:15:17.813Z,15.10
2023-04-03T23:17:48.660Z,15.00
2023-04-03T23:20:17.963Z,15.00
2023-04-03T23:22:47.043Z,15.10
2023-04-03T23:25:16.025Z,15.10
2023-04-03T23:27:51.454Z,15.10
2023-04-03T23:30:22.766Z,15.20
2023-04-03T23:32:51.848Z,15.20
2023-04-03T23:35:20.637Z,15.20
2023-04-03T23:37:49.549Z,15.30
2023-04-03T23:40:18.697Z,15.30
2023-04-03T23:42:47.780Z,15.30
2023-04-03T23:45:16.749Z,15.30
2023-04-03T23:47:47.076Z,15.30
2023-04-03T23:50:16.213Z,15.30
2023-04-03T23:52:45.077Z,15.30
2023-04-03T23:55:14.057Z,15.30
2023-04-03T23:57:43.731Z,15.30
